createdAt,value
2022-11-03T00:01:46.270Z,98673.88
2022-11-03T00:04:15.314Z,98671.78
2022-11-03T00:06:43.333Z,98674.09
2022-11-03T00:09:11.857Z,98678.91
2022-11-03T00:11:40.220Z,98685.81
2022-11-03T00:14:09.269Z,98676.16
2022-11-03T00:16:36.806Z,98678.66
2022-11-03T00:19:03.699Z,98678.25
2022-11-03T00:21:30.574Z,98681.59
2022-11-03T00:23:57.203Z,98682.66
2022-11-03T00:26:28.849Z,98680.31
2022-11-03T00:28:57.696Z,98684.28
2022-11-03T00:31:32.270Z,98678.41
2022-11-03T00:34:00.220Z,98674.03
2022-11-03T00:36:29.062Z,98678.03
2022-11-03T00:38:56.337Z,98685.13
2022-11-03T00:41:24.125Z,98688.28
2022-11-03T00:43:51.582Z,98685.78
2022-11-03T00:46:19.944Z,98684.50
2022-11-03T00:48:46.577Z,98693.75
2022-11-03T00:51:24.811Z,98692.50
2022-11-03T00:53:59.402Z,98695.41
2022-11-03T00:56:34.345Z,98692.94
2022-11-03T00:59:02.473Z,98682.66
2022-11-03T01:01:43.949Z,98688.53
2022-11-03T01:04:30.928Z,98685.81
2022-11-03T01:06:59.849Z,98686.84
2022-11-03T01:09:27.974Z,98690.00
2022-11-03T01:12:00.610Z,98695.66
2022-11-03T01:14:33.688Z,98694.41
2022-11-03T01:17:00.637Z,98691.47
2022-11-03T01:19:28.097Z,98707.56
2022-11-03T01:21:55.103Z,98716.31
2022-11-03T01:24:21.984Z,98715.47
2022-11-03T01:26:48.792Z,98731.41
2022-11-03T01:29:15.514Z,98726.28
2022-11-03T01:31:42.165Z,98722.38
2022-11-03T01:34:13.896Z,98713.44
2022-11-03T01:36:40.464Z,98721.50
2022-11-03T01:39:07.066Z,98734.53
2022-11-03T01:41:33.637Z,98744.09
2022-11-03T01:44:09.174Z,98751.47
2022-11-03T01:46:51.523Z,98739.00
2022-11-03T01:49:30.694Z,98735.47
2022-11-03T01:52:11.433Z,98739.44
2022-11-03T01:54:40.932Z,98731.75
2022-11-03T01:57:14.779Z,98732.00
2022-11-03T01:59:42.545Z,98735.78
2022-11-03T02:02:09.364Z,98732.88
2022-11-03T02:04:36.325Z,98734.31
2022-11-03T02:07:15.917Z,98745.03
2022-11-03T02:09:42.518Z,98744.66
2022-11-03T02:12:10.361Z,98746.94
2022-11-03T02:14:49.694Z,98736.50
2022-11-03T02:17:18.257Z,98743.81
2022-11-03T02:19:49.650Z,98742.78
2022-11-03T02:22:57.715Z,98748.84
2022-11-03T02:25:57.964Z,98754.44
2022-11-03T02:28:30.100Z,98744.66
2022-11-03T02:31:12.855Z,98748.59
2022-11-03T02:33:57.754Z,98753.38
2022-11-03T02:36:58.665Z,98751.16
2022-11-03T02:39:28.980Z,98757.22
2022-11-03T02:41:58.031Z,98756.44
2022-11-03T02:44:26.022Z,98752.47
2022-11-03T02:47:00.601Z,98754.81
2022-11-03T02:49:27.797Z,98744.72
2022-11-03T02:52:05.693Z,98737.84
2022-11-03T02:54:38.625Z,98743.03
2022-11-03T02:57:25.466Z,98741.75
2022-11-03T03:00:02.381Z,98748.59
2022-11-03T03:02:51.621Z,98759.22
2022-11-03T03:05:21.782Z,98751.88
2022-11-03T03:07:52.114Z,98748.34
2022-11-03T03:10:29.756Z,98751.66
2022-11-03T03:12:59.098Z,98751.22
2022-11-03T03:15:49.005Z,98771.22
2022-11-03T03:18:41.956Z,98767.91
2022-11-03T03:21:19.984Z,98768.06
2022-11-03T03:23:54.896Z,98778.47
2022-11-03T03:26:30.808Z,98786.03
2022-11-03T03:29:06.200Z,98775.31
2022-11-03T03:31:38.152Z,98776.16
2022-11-03T03:34:23.832Z,98787.00
2022-11-03T03:36:57.502Z,98790.34
2022-11-03T03:39:27.878Z,98781.94
2022-11-03T03:41:56.700Z,98780.22
2022-11-03T03:44:23.908Z,98776.91
2022-11-03T03:47:09.724Z,98782.34
2022-11-03T03:49:36.280Z,98780.53
2022-11-03T03:52:03.987Z,98777.47
2022-11-03T03:54:30.653Z,98775.88
2022-11-03T03:57:02.980Z,98782.44
2022-11-03T03:59:29.740Z,98784.34
2022-11-03T04:01:56.539Z,98777.22
2022-11-03T04:04:23.508Z,98776.84
2022-11-03T04:06:50.084Z,98774.78
2022-11-03T04:09:16.636Z,98774.00
2022-11-03T04:12:01.669Z,98779.47
2022-11-03T04:14:46.432Z,98771.75
2022-11-03T04:17:38.867Z,98765.31
2022-11-03T04:20:30.948Z,98777.06
2022-11-03T04:22:57.545Z,98774.56
2022-11-03T04:25:24.112Z,98786.75
2022-11-03T04:27:51.261Z,98798.06
2022-11-03T04:30:20.067Z,98811.28
2022-11-03T04:32:49.189Z,98810.56
2022-11-03T04:35:26.649Z,98816.06
2022-11-03T04:38:03.722Z,98819.47
2022-11-03T04:40:30.671Z,98832.03
2022-11-03T04:42:57.774Z,98841.38
2022-11-03T04:45:34.049Z,98839.66
2022-11-03T04:48:09.485Z,98846.28
2022-11-03T04:50:36.041Z,98846.28
2022-11-03T04:53:02.593Z,98850.78
2022-11-03T04:55:29.175Z,98860.88
2022-11-03T04:58:02.936Z,98862.56
2022-11-03T05:00:29.584Z,98864.66
2022-11-03T05:02:56.683Z,98869.91
2022-11-03T05:05:26.274Z,98868.31
2022-11-03T05:07:55.650Z,98869.47
2022-11-03T05:10:25.980Z,98867.81
2022-11-03T05:12:54.079Z,98868.13
2022-11-03T05:15:38.416Z,98872.41
2022-11-03T05:18:13.942Z,98880.22
2022-11-03T05:21:03.540Z,98889.88
2022-11-03T05:23:37.747Z,98889.19
2022-11-03T05:26:05.635Z,98900.75
2022-11-03T05:28:36.085Z,98898.53
2022-11-03T05:31:07.177Z,98906.75
2022-11-03T05:33:36.917Z,98905.59
2022-11-03T05:36:20.168Z,98910.25
2022-11-03T05:38:47.139Z,98907.44
2022-11-03T05:41:23.472Z,98902.84
2022-11-03T05:43:59.884Z,98916.94
2022-11-03T05:46:33.919Z,98925.59
2022-11-03T05:49:03.206Z,98927.84
2022-11-03T05:51:37.968Z,98932.72
2022-11-03T05:54:16.971Z,98939.19
2022-11-03T05:56:46.931Z,98946.06
2022-11-03T05:59:14.416Z,98949.78
2022-11-03T06:01:41.778Z,98948.53
2022-11-03T06:04:28.758Z,98953.38
2022-11-03T06:07:20.550Z,98966.31
2022-11-03T06:09:47.164Z,98967.56
2022-11-03T06:12:19.314Z,98968.84
2022-11-03T06:14:45.937Z,98973.84
2022-11-03T06:17:30.657Z,98973.44
2022-11-03T06:20:00.295Z,98966.31
2022-11-03T06:22:45.718Z,98978.88
2022-11-03T06:25:30.049Z,98976.66
2022-11-03T06:28:01.922Z,98983.84
2022-11-03T06:30:31.337Z,98979.44
2022-11-03T06:33:10.755Z,98978.63
2022-11-03T06:35:37.449Z,98970.53
2022-11-03T06:38:13.046Z,98979.97
2022-11-03T06:40:39.776Z,98974.09
2022-11-03T06:43:28.777Z,98985.03
2022-11-03T06:46:01.172Z,98990.31
2022-11-03T06:48:29.673Z,98982.97
2022-11-03T06:50:58.257Z,98987.19
2022-11-03T06:53:31.136Z,98984.03
2022-11-03T06:55:58.895Z,98989.50
2022-11-03T06:58:33.641Z,98984.72
2022-11-03T07:01:04.177Z,98986.19
2022-11-03T07:03:37.514Z,98994.81
2022-11-03T07:06:10.170Z,98995.19
2022-11-03T07:08:43.615Z,98996.03
2022-11-03T07:11:18.806Z,99003.81
2022-11-03T07:13:47.712Z,98996.88
2022-11-03T07:16:25.772Z,99004.63
2022-11-03T07:18:52.370Z,98998.75
2022-11-03T07:21:27.793Z,99004.38
2022-11-03T07:23:54.514Z,99003.94
2022-11-03T07:26:21.092Z,98997.00
2022-11-03T07:28:48.532Z,99001.63
2022-11-03T07:31:24.855Z,99004.16
2022-11-03T07:33:57.637Z,99000.72
2022-11-03T07:36:26.008Z,99005.91
2022-11-03T07:38:54.105Z,99002.91
2022-11-03T07:41:29.556Z,99010.19
2022-11-03T07:44:00.989Z,99005.09
2022-11-03T07:46:27.914Z,98996.88
2022-11-03T07:48:59.699Z,99002.88
2022-11-03T07:51:28.601Z,98991.06
2022-11-03T07:54:04.224Z,99000.03
2022-11-03T07:56:38.795Z,99006.25
2022-11-03T07:59:16.466Z,98999.16
2022-11-03T08:01:49.938Z,99006.09
2022-11-03T08:04:32.252Z,99002.03
2022-11-03T08:06:58.848Z,98992.22
2022-11-03T08:09:25.843Z,98994.97
2022-11-03T08:11:53.023Z,98990.69
2022-11-03T08:14:19.592Z,98992.84
2022-11-03T08:16:46.263Z,98996.94
2022-11-03T08:19:12.809Z,98988.03
2022-11-03T08:21:39.396Z,98992.22
2022-11-03T08:24:06.533Z,98986.31
2022-11-03T08:26:33.113Z,98985.63
2022-11-03T08:28:59.721Z,98987.28
2022-11-03T08:31:26.317Z,98998.09
2022-11-03T08:33:52.887Z,98999.16
2022-11-03T08:36:20.810Z,98993.31
2022-11-03T08:38:47.573Z,98984.84
2022-11-03T08:41:14.143Z,98987.97
2022-11-03T08:43:40.658Z,98984.53
2022-11-03T08:46:15.724Z,98996.94
2022-11-03T08:48:43.920Z,98995.53
2022-11-03T08:51:13.580Z,98990.91
2022-11-03T08:53:42.613Z,98995.59
2022-11-03T08:56:12.471Z,98994.56
2022-11-03T08:58:40.787Z,98989.75
2022-11-03T09:01:08.107Z,98995.72
2022-11-03T09:03:34.918Z,98990.34
2022-11-03T09:06:01.574Z,98985.53
2022-11-03T09:11:14.944Z,98988.97
2022-11-03T09:13:41.721Z,98983.78
2022-11-03T09:16:08.607Z,98984.72
2022-11-03T09:18:35.155Z,98981.56
2022-11-03T09:21:01.849Z,98966.94
2022-11-03T09:23:28.400Z,98969.94
2022-11-03T09:25:54.961Z,98973.88
2022-11-03T09:28:21.538Z,98964.28
2022-11-03T09:30:48.156Z,98968.28
2022-11-03T09:33:14.766Z,98974.75
2022-11-03T09:35:41.932Z,98962.81
2022-11-03T09:38:08.752Z,98947.94
2022-11-03T09:40:36.295Z,98949.13
2022-11-03T09:43:03.597Z,98942.44
2022-11-03T09:45:30.193Z,98948.84
2022-11-03T09:47:57.024Z,98953.09
2022-11-03T09:50:23.676Z,98955.47
2022-11-03T09:52:55.437Z,98948.09
2022-11-03T09:55:25.688Z,98955.47
2022-11-03T09:57:59.475Z,98951.66
2022-11-03T10:00:27.316Z,98955.38
2022-11-03T10:02:55.091Z,98949.94
2022-11-03T10:05:27.608Z,98942.66
2022-11-03T10:08:07.454Z,98947.81
2022-11-03T10:10:35.622Z,98944.22
2022-11-03T10:13:02.302Z,98939.63
2022-11-03T10:15:29.129Z,98939.38
2022-11-03T10:17:56.679Z,98928.47
2022-11-03T10:20:23.799Z,98931.28
2022-11-03T10:22:55.012Z,98921.19
2022-11-03T10:25:40.115Z,98919.03
2022-11-03T10:28:14.631Z,98921.00
2022-11-03T10:31:18.549Z,98921.94
2022-11-03T10:33:52.262Z,98907.75
2022-11-03T10:36:18.916Z,98915.25
2022-11-03T10:38:45.862Z,98904.94
2022-11-03T10:41:13.641Z,98911.50
2022-11-03T10:43:42.071Z,98899.66
2022-11-03T10:46:44.243Z,98894.31
2022-11-03T10:49:15.528Z,98892.88
2022-11-03T10:51:44.231Z,98882.38
2022-11-03T10:54:14.702Z,98893.25
2022-11-03T10:56:42.352Z,98883.66
2022-11-03T10:59:17.648Z,98883.16
2022-11-03T11:01:44.599Z,98883.78
2022-11-03T11:04:18.359Z,98881.72
2022-11-03T11:06:46.435Z,98882.50
2022-11-03T11:09:17.324Z,98873.00
2022-11-03T11:12:04.689Z,98871.31
2022-11-03T11:14:34.720Z,98873.22
2022-11-03T11:17:02.614Z,98876.19
2022-11-03T11:19:30.835Z,98870.16
2022-11-03T11:21:58.422Z,98869.88
2022-11-03T11:24:43.279Z,98864.84
2022-11-03T11:27:44.666Z,98871.09
2022-11-03T11:30:20.381Z,98861.53
2022-11-03T11:32:48.126Z,98849.25
2022-11-03T11:35:37.532Z,98848.31
2022-11-03T11:38:41.340Z,98840.41
2022-11-03T11:41:08.024Z,98824.47
2022-11-03T11:43:34.615Z,98829.22
2022-11-03T11:46:22.963Z,98832.75
2022-11-03T11:49:02.161Z,98826.31
2022-11-03T11:51:32.884Z,98821.66
2022-11-03T11:54:17.047Z,98829.31
2022-11-03T11:56:47.430Z,98827.06
2022-11-03T11:59:24.709Z,98818.03
2022-11-03T12:01:54.826Z,98811.03
2022-11-03T12:04:28.049Z,98806.53
2022-11-03T12:06:55.942Z,98808.53
2022-11-03T12:09:26.956Z,98799.88
2022-11-03T12:12:00.652Z,98794.13
2022-11-03T12:14:30.637Z,98793.81
2022-11-03T12:17:16.310Z,98801.03
2022-11-03T12:19:47.877Z,98781.88
2022-11-03T12:22:23.672Z,98780.91
2022-11-03T12:24:56.089Z,98781.63
2022-11-03T12:27:25.423Z,98777.53
2022-11-03T12:29:52.784Z,98776.47
2022-11-03T12:32:32.552Z,98770.69
2022-11-03T12:35:01.282Z,98778.41
2022-11-03T12:37:27.881Z,98775.38
2022-11-03T12:39:54.482Z,98774.97
2022-11-03T12:42:21.213Z,98780.47
2022-11-03T12:44:47.978Z,98778.06
2022-11-03T12:47:14.525Z,98774.81
2022-11-03T12:49:41.071Z,98776.72
2022-11-03T12:52:08.707Z,98771.47
2022-11-03T12:54:35.690Z,98761.47
2022-11-03T12:57:02.353Z,98763.38
2022-11-03T12:59:29.364Z,98751.13
2022-11-03T13:01:56.202Z,98755.56
2022-11-03T13:04:23.003Z,98752.56
2022-11-03T13:06:49.554Z,98756.22
2022-11-03T13:09:16.336Z,98751.78
2022-11-03T13:12:01.663Z,98750.16
2022-11-03T13:14:28.259Z,98751.56
2022-11-03T13:16:54.854Z,98744.34
2022-11-03T13:19:21.444Z,98752.66
2022-11-03T13:21:48.318Z,98756.28
2022-11-03T13:24:14.905Z,98747.41
2022-11-03T13:26:41.469Z,98746.53
2022-11-03T13:29:08.012Z,98754.00
2022-11-03T13:31:35.820Z,98758.13
2022-11-03T13:34:03.723Z,98755.63
2022-11-03T13:36:30.428Z,98749.97
2022-11-03T13:38:57.071Z,98744.03
2022-11-03T13:41:23.665Z,98743.59
2022-11-03T13:43:50.193Z,98745.91
2022-11-03T13:46:16.744Z,98740.25
2022-11-03T13:51:29.900Z,98747.06
2022-11-03T13:59:29.843Z,98747.34
2022-11-03T14:04:44.304Z,98740.66
2022-11-03T14:07:11.468Z,98742.84
2022-11-03T14:09:38.216Z,98743.06
2022-11-03T14:12:23.661Z,98748.16
2022-11-03T14:14:52.250Z,98748.94
2022-11-03T14:17:18.981Z,98745.25
2022-11-03T14:19:52.130Z,98743.22
2022-11-03T14:22:21.059Z,98762.31
2022-11-03T14:24:48.023Z,98750.06
2022-11-03T14:27:15.965Z,98749.94
2022-11-03T14:29:44.313Z,98744.00
2022-11-03T14:32:12.013Z,98750.31
2022-11-03T14:34:38.885Z,98745.91
2022-11-03T14:37:06.214Z,98746.28
2022-11-03T14:39:32.776Z,98739.94
2022-11-03T14:42:05.139Z,98741.97
2022-11-03T14:44:33.073Z,98749.34
2022-11-03T14:47:03.533Z,98745.75
2022-11-03T14:49:31.194Z,98746.22
2022-11-03T14:51:59.560Z,98746.44
2022-11-03T14:54:26.327Z,98750.72
2022-11-03T14:56:53.892Z,98748.78
2022-11-03T14:59:21.404Z,98751.50
2022-11-03T15:01:49.748Z,98748.84
2022-11-03T15:04:16.366Z,98754.78
2022-11-03T15:06:43.674Z,98748.97
2022-11-03T15:09:10.451Z,98756.25
2022-11-03T15:11:37.653Z,98758.47
2022-11-03T15:14:04.611Z,98756.41
2022-11-03T15:16:31.279Z,98755.59
2022-11-03T15:18:59.180Z,98751.88
2022-11-03T15:21:25.748Z,98756.97
2022-11-03T15:26:38.840Z,98766.78
2022-11-03T15:29:05.377Z,98760.31
2022-11-03T15:31:32.080Z,98761.97
2022-11-03T15:33:59.985Z,98762.88
2022-11-03T15:36:28.431Z,98761.25
2022-11-03T15:38:54.992Z,98766.56
2022-11-03T15:41:21.577Z,98773.53
2022-11-03T15:43:49.774Z,98761.00
2022-11-03T15:46:18.188Z,98771.75
2022-11-03T15:48:45.525Z,98766.97
2022-11-03T15:51:12.454Z,98773.72
2022-11-03T15:53:39.742Z,98767.09
2022-11-03T15:56:07.069Z,98765.03
2022-11-03T15:58:34.560Z,98766.31
2022-11-03T16:01:03.153Z,98767.03
2022-11-03T16:03:31.892Z,98770.22
2022-11-03T16:05:59.141Z,98777.84
2022-11-03T16:08:26.021Z,98772.19
2022-11-03T16:10:57.684Z,98764.44
2022-11-03T16:13:25.536Z,98772.03
2022-11-03T16:15:54.418Z,98784.63
2022-11-03T16:18:21.616Z,98781.50
2022-11-03T16:20:48.240Z,98787.00
2022-11-03T16:23:14.889Z,98789.31
2022-11-03T16:25:41.497Z,98784.31
2022-11-03T16:28:08.443Z,98797.34
2022-11-03T16:30:35.472Z,98791.72
2022-11-03T16:33:02.106Z,98800.13
2022-11-03T16:35:29.737Z,98811.09
2022-11-03T16:37:56.453Z,98810.91
2022-11-03T16:40:23.718Z,98805.66
2022-11-03T16:42:50.410Z,98800.19
2022-11-03T16:45:22.325Z,98809.66
2022-11-03T16:47:50.568Z,98811.81
2022-11-03T16:50:18.256Z,98811.00
2022-11-03T16:52:46.381Z,98813.31
2022-11-03T16:55:15.101Z,98821.91
2022-11-03T16:57:43.205Z,98813.78
2022-11-03T17:00:19.785Z,98823.00
2022-11-03T17:02:47.857Z,98816.69
2022-11-03T17:05:17.761Z,98815.44
2022-11-03T17:07:51.746Z,98816.25
2022-11-03T17:10:20.276Z,98815.88
2022-11-03T17:12:47.371Z,98817.75
2022-11-03T17:15:14.437Z,98818.63
2022-11-03T17:17:41.831Z,98828.03
2022-11-03T17:20:10.935Z,98823.22
2022-11-03T17:22:37.956Z,98820.28
2022-11-03T17:25:06.517Z,98823.44
2022-11-03T17:27:40.524Z,98828.06
2022-11-03T17:30:11.874Z,98817.78
2022-11-03T17:32:41.384Z,98822.41
2022-11-03T17:35:21.753Z,98819.06
2022-11-03T17:37:52.464Z,98821.56
2022-11-03T17:40:21.007Z,98819.03
2022-11-03T17:42:48.690Z,98822.81
2022-11-03T17:45:18.333Z,98816.94
2022-11-03T17:47:45.434Z,98815.88
2022-11-03T17:50:21.264Z,98815.25
2022-11-03T17:52:49.712Z,98823.19
2022-11-03T17:55:17.700Z,98816.50
2022-11-03T17:57:45.531Z,98819.00
2022-11-03T18:00:18.053Z,98808.06
2022-11-03T18:02:45.208Z,98817.28
2022-11-03T18:05:14.211Z,98813.91
2022-11-03T18:07:43.748Z,98812.63
2022-11-03T18:10:10.391Z,98806.34
2022-11-03T18:13:01.686Z,98813.03
2022-11-03T18:15:30.979Z,98808.03
2022-11-03T18:17:57.622Z,98807.78
2022-11-03T18:20:29.434Z,98813.22
2022-11-03T18:23:11.142Z,98810.88
2022-11-03T18:25:37.791Z,98812.13
2022-11-03T18:28:04.723Z,98810.44
2022-11-03T18:30:31.627Z,98806.69
2022-11-03T18:32:58.284Z,98806.22
2022-11-03T18:35:28.553Z,98799.06
2022-11-03T18:37:56.376Z,98796.13
2022-11-03T18:40:23.050Z,98801.31
2022-11-03T18:42:49.830Z,98795.06
2022-11-03T18:45:18.752Z,98800.03
2022-11-03T18:47:45.526Z,98793.13
2022-11-03T18:50:17.174Z,98802.31
2022-11-03T18:52:49.387Z,98797.50
2022-11-03T18:55:17.252Z,98793.31
2022-11-03T18:57:44.534Z,98796.44
2022-11-03T19:00:20.534Z,98798.13
2022-11-03T19:02:47.852Z,98791.19
2022-11-03T19:05:18.938Z,98794.75
2022-11-03T19:07:50.028Z,98794.13
2022-11-03T19:10:22.338Z,98803.31
2022-11-03T19:12:49.091Z,98800.06
2022-11-03T19:15:24.847Z,98800.47
2022-11-03T19:17:55.140Z,98797.31
2022-11-03T19:20:23.575Z,98803.19
2022-11-03T19:22:50.247Z,98807.94
2022-11-03T19:25:18.713Z,98810.22
2022-11-03T19:27:48.050Z,98804.16
2022-11-03T19:30:19.632Z,98807.06
2022-11-03T19:32:50.355Z,98801.44
2022-11-03T19:35:20.699Z,98802.06
2022-11-03T19:37:52.889Z,98801.81
2022-11-03T19:40:20.271Z,98800.78
2022-11-03T19:42:48.808Z,98800.69
2022-11-03T19:45:18.405Z,98812.47
2022-11-03T19:48:22.460Z,98812.25
2022-11-03T19:50:44.857Z,98806.13
2022-11-03T19:53:28.117Z,98802.78
2022-11-03T19:55:55.525Z,98807.81
2022-11-03T19:58:29.101Z,98811.41
2022-11-03T20:00:56.450Z,98800.31
2022-11-03T20:03:23.948Z,98808.66
2022-11-03T20:05:56.619Z,98806.13
2022-11-03T20:08:28.884Z,98810.91
2022-11-03T20:10:56.051Z,98810.06
2022-11-03T20:13:25.383Z,98806.91
2022-11-03T20:15:57.361Z,98799.22
2022-11-03T20:18:27.120Z,98805.88
2022-11-03T20:20:53.838Z,98804.81
2022-11-03T20:23:25.957Z,98810.22
2022-11-03T20:25:53.590Z,98803.53
2022-11-03T20:28:24.968Z,98801.50
2022-11-03T20:30:52.862Z,98806.91
2022-11-03T20:33:21.466Z,98804.34
2022-11-03T20:35:50.139Z,98806.22
2022-11-03T20:38:22.763Z,98799.50
2022-11-03T20:40:55.668Z,98801.38
2022-11-03T20:43:26.689Z,98804.34
2022-11-03T20:45:56.523Z,98809.53
2022-11-03T20:48:23.556Z,98807.59
2022-11-03T20:50:51.264Z,98811.97
2022-11-03T20:53:21.342Z,98813.66
2022-11-03T20:55:48.410Z,98812.44
2022-11-03T20:58:18.132Z,98805.66
2022-11-03T21:00:46.273Z,98800.44
2022-11-03T21:03:38.087Z,98802.19
2022-11-03T21:06:04.898Z,98797.06
2022-11-03T21:08:31.479Z,98794.94
2022-11-03T21:11:18.079Z,98790.78
2022-11-03T21:13:44.662Z,98786.94
2022-11-03T21:16:30.152Z,98785.72
2022-11-03T21:19:15.148Z,98778.59
2022-11-03T21:21:41.832Z,98779.00
2022-11-03T21:24:11.359Z,98780.66
2022-11-03T21:26:40.098Z,98782.34
2022-11-03T21:29:06.812Z,98776.47
2022-11-03T21:31:33.424Z,98777.91
2022-11-03T21:34:00.074Z,98775.97
2022-11-03T21:36:26.725Z,98784.31
2022-11-03T21:38:53.593Z,98783.06
2022-11-03T21:41:39.881Z,98778.03
2022-11-03T21:44:17.614Z,98768.56
2022-11-03T21:46:44.740Z,98773.75
2022-11-03T21:49:29.740Z,98778.56
2022-11-03T21:51:56.809Z,98772.00
2022-11-03T21:54:23.422Z,98765.38
2022-11-03T21:56:50.043Z,98767.72
2022-11-03T21:59:16.790Z,98764.81
2022-11-03T22:01:43.744Z,98765.28
2022-11-03T22:04:10.520Z,98759.72
2022-11-03T22:06:37.191Z,98746.28
2022-11-03T22:09:04.299Z,98748.06
2022-11-03T22:11:30.972Z,98737.44
2022-11-03T22:13:59.993Z,98740.34
2022-11-03T22:16:43.089Z,98737.44
2022-11-03T22:19:38.751Z,98745.19
2022-11-03T22:22:29.492Z,98736.59
2022-11-03T22:25:14.575Z,98735.31
2022-11-03T22:27:41.657Z,98737.22
2022-11-03T22:30:27.802Z,98744.28
2022-11-03T22:32:56.919Z,98743.00
2022-11-03T22:35:43.470Z,98745.06
2022-11-03T22:38:15.730Z,98739.38
2022-11-03T22:41:02.777Z,98734.13
2022-11-03T22:43:47.743Z,98721.53
2022-11-03T22:46:15.936Z,98711.47
2022-11-03T22:48:42.692Z,98711.03
2022-11-03T22:51:13.165Z,98702.34
2022-11-03T22:53:59.037Z,98695.72
2022-11-03T22:56:27.408Z,98693.88
2022-11-03T22:58:54.194Z,98695.91
2022-11-03T23:01:23.463Z,98701.50
2022-11-03T23:03:50.383Z,98701.59
2022-11-03T23:06:20.038Z,98705.44
2022-11-03T23:08:48.172Z,98702.44
2022-11-03T23:11:23.815Z,98701.81
2022-11-03T23:13:54.850Z,98695.56
2022-11-03T23:16:24.012Z,98696.28
2022-11-03T23:19:09.039Z,98693.34
2022-11-03T23:21:35.995Z,98684.94
2022-11-03T23:24:21.873Z,98678.28
2022-11-03T23:26:48.752Z,98681.81
2022-11-03T23:29:15.739Z,98685.38
2022-11-03T23:31:44.278Z,98686.56
2022-11-03T23:34:12.433Z,98689.56
2022-11-03T23:36:39.071Z,98690.97
2022-11-03T23:39:06.472Z,98682.09
2022-11-03T23:41:33.744Z,98691.97
2022-11-03T23:44:00.318Z,98686.09
2022-11-03T23:46:46.848Z,98682.19
2022-11-03T23:49:14.288Z,98687.03
2022-11-03T23:51:42.109Z,98681.91
2022-11-03T23:54:10.651Z,98681.63
2022-11-03T23:56:58.186Z,98679.66
2022-11-03T23:59:25.768Z,98672.13
